Date,TemperatureHighF,TemperatureAvgF,TemperatureLowF,DewpointHighF,DewpointAvgF,DewpointLowF,HumidityHigh,HumidityAvg,HumidityLow,PressureMaxIn,PressureMinIn,WindSpeedMaxMPH,WindSpeedAvgMPH,GustSpeedMaxMPH,PrecipitationSumIn
2013-1-1,76.0,65.5,54.1,60.5,56.9,51.8,96,75,54,30.16,29.98,17,0,17,0.00
2013-1-2,74.9,68.3,63.4,68.0,65.3,60.2,98,91,77,30.01,29.94,14,1,14,0.00
2013-1-3,74.7,64.1,58.3,69.0,62.2,57.7,100,94,74,30.12,29.97,11,0,12,0.20
2013-1-4,60.9,57.6,54.5,59.2,56.7,54.2,99,97,89,30.23,30.10,10,0,10,0.05
2013-1-5,70.4,60.9,54.7,60.5,56.2,49.2,96,85,66,30.24,30.13,12,0,12,0.00
2013-1-6,74.6,64.1,61.2,67.1,61.8,59.3,99,92,75,30.13,30.02,10,0,10,0.02
2013-1-7,66.4,62.3,58.6,63.3,58.6,52.3,98,88,72,30.15,30.05,16,1,16,0.01
2013-1-8,81.4,69.5,61.0,67.9,64.3,59.8,97,85,59,30.16,30.06,10,0,10,0.00
2013-1-9,85.3,75.6,70.1,71.5,68.4,65.4,96,80,55,30.22,30.10,13,1,13,0.00
2013-1-10,71.8,71.3,70.9,70.0,69.5,68.8,95,94,91,30.22,30.20,10,0,10,0.00
2013-1-11,83.0,72.2,65.5,67.2,64.4,62.0,96,78,54,30.20,30.07,4,1,18,0.00
2013-1-12,82.0,72.0,66.0,68.6,67.0,63.9,96,85,58,30.12,30.02,10,0,13,0.00
2013-1-13,80.5,72.2,66.3,67.4,64.8,61.6,93,78,54,30.11,30.00,13,0,13,0.00
2013-1-14,80.7,70.9,63.7,65.4,61.7,57.8,96,75,48,30.12,30.05,14,0,16,0.00
2013-1-15,80.9,70.2,62.7,66.0,63.3,60.0,96,80,53,30.08,29.99,14,1,14,0.00
2013-1-16,81.2,68.3,64.7,67.6,65.5,58.4,98,91,46,30.04,29.95,4,0,13,0.00
2013-1-17,71.1,63.2,53.8,69.4,58.6,45.9,98,85,62,30.11,29.93,19,2,19,0.14
2013-1-18,62.4,54.7,43.3,53.6,46.2,36.1,80,73,64,30.26,30.11,16,1,16,0.00
2013-1-19,74.7,65.2,54.2,59.4,55.1,47.2,83,70,57,30.22,30.07,14,0,14,0.00
2013-1-20,73.7,65.2,60.1,63.2,58.9,54.4,91,80,66,30.12,29.99,6,0,8,0.00
2013-1-21,71.6,65.4,61.6,61.4,58.2,51.9,89,78,68,30.05,29.98,8,0,8,0.00
2013-1-22,66.4,59.7,53.1,53.6,43.0,30.8,74,55,33,30.23,30.02,8,0,11,0.00
2013-1-23,65.2,56.1,46.5,49.4,39.5,30.2,81,55,34,30.32,30.22,11,0,11,0.00
2013-1-24,67.8,57.3,48.2,56.0,50.6,41.6,96,79,56,30.29,30.21,3,0,3,0.00
2013-1-25,72.0,60.6,53.9,60.5,55.7,46.0,99,85,43,30.26,30.15,7,0,7,0.02
2013-1-26,72.3,63.4,53.2,59.6,57.1,51.2,97,81,58,30.23,30.13,5,0,5,0.00
2013-1-27,76.3,64.4,55.4,61.8,58.1,52.6,99,82,44,30.25,30.16,10,0,11,0.01
2013-1-28,79.8,69.3,62.6,64.6,62.1,57.5,95,79,51,30.25,30.15,12,1,12,0.01
2013-1-29,82.4,71.1,63.4,66.9,64.4,61.0,97,81,52,30.17,30.02,18,2,18,0.00
2013-1-30,77.4,72.1,67.8,66.9,65.3,62.8,90,80,65,30.02,29.85,28,4,29,0.00
2013-1-31,68.9,58.1,54.5,63.9,46.7,35.0,96,67,44,30.19,29.91,16,0,22,0.12
2013-2-1,64.3,56.2,47.0,46.1,39.7,29.8,68,55,31,30.31,30.18,11,0,11,0.00
2013-2-2,68.1,57.6,46.4,50.1,42.6,31.4,70,58,27,30.26,30.12,8,0,8,0.00
2013-2-3,68.8,59.4,48.0,56.9,49.4,42.0,87,70,55,30.15,30.05,5,0,5,0.00
2013-2-4,67.9,58.3,50.7,51.2,45.2,34.3,84,63,31,30.09,30.00,5,0,10,0.00
2013-2-5,73.9,61.1,49.1,58.0,49.3,40.6,83,67,43,30.04,29.95,16,1,16,0.00
2013-2-6,77.2,67.1,60.9,62.2,58.6,55.0,87,75,51,30.04,29.96,12,0,12,0.00
2013-2-7,77.9,69.1,63.4,67.1,63.2,58.7,94,82,57,30.00,29.81,31,3,31,0.14
2013-2-8,70.3,65.0,61.2,66.4,61.3,57.2,96,88,74,30.04,29.85,14,1,17,0.00
2013-2-9,72.0,63.2,55.6,59.7,56.0,51.8,96,78,58,30.15,30.02,12,0,12,0.00
2013-2-10,78.8,68.9,61.5,62.6,59.1,54.8,86,72,51,30.18,30.08,16,2,16,0.00
2013-2-11,78.6,70.5,64.0,66.5,63.6,59.8,91,79,62,30.13,30.02,22,2,22,0.00
2013-2-12,78.6,71.6,67.3,70.1,68.1,65.7,97,89,73,30.04,29.89,26,3,26,0.00
2013-2-13,77.4,69.8,59.2,71.7,67.0,54.5,98,91,69,29.94,29.79,24,4,24,0.50
2013-2-14,64.3,60.8,58.7,60.4,58.7,56.7,97,93,84,30.01,29.88,8,0,8,0.02
2013-2-15,65.0,59.2,55.3,59.0,53.9,50.0,97,83,66,30.04,29.92,8,0,8,0.02
2013-2-16,66.3,58.5,51.1,53.2,47.2,36.3,90,67,47,30.09,29.90,21,2,21,0.00
2013-2-17,54.2,47.5,40.5,39.8,28.8,17.5,66,49,36,30.29,30.09,17,1,17,0.00
2013-2-18,68.6,52.4,39.2,51.2,37.2,22.5,83,59,30,30.31,30.15,14,0,17,0.00
2013-2-19,74.4,64.3,53.8,62.7,55.8,47.8,91,75,53,30.16,30.03,22,2,22,0.00
2013-2-20,75.3,64.1,57.3,63.9,59.8,53.7,97,86,66,30.07,29.98,8,0,8,0.00
2013-2-21,79.9,67.8,57.0,65.1,60.7,52.5,91,79,58,30.05,29.93,15,1,15,0.00
2013-2-22,80.7,71.5,63.5,69.4,66.1,62.0,95,84,66,30.01,29.94,22,2,22,0.00
2013-2-23,75.8,71.2,68.1,71.0,69.1,67.2,99,93,84,29.95,29.85,24,2,24,0.00
2013-2-24,75.3,70.3,67.8,71.7,68.6,67.5,99,95,81,29.91,29.82,16,1,16,0.00
2013-2-25,80.3,73.7,68.3,71.5,69.1,67.1,97,86,67,29.84,29.71,21,2,21,0.00
2013-2-26,74.6,71.0,66.6,71.4,67.2,61.2,96,88,79,29.84,29.64,25,3,25,0.33
2013-2-27,69.3,65.2,60.4,61.7,56.7,52.5,82,74,62,29.94,29.82,12,1,12,0.01
2013-2-28,71.5,64.8,60.5,58.3,53.7,47.8,80,67,58,29.96,29.87,12,1,12,0.00
2013-3-1,62.1,58.3,53.2,50.2,44.9,37.9,71,61,50,29.98,29.87,13,1,13,0.00
2013-3-2,58.0,54.3,47.3,44.1,40.9,37.2,81,61,52,30.04,29.93,17,1,17,0.01
2013-3-3,53.5,50.0,42.5,41.3,37.5,29.0,70,62,55,30.12,29.95,18,2,18,0.00
2013-3-4,60.7,52.1,42.3,42.6,36.9,27.8,80,57,42,30.18,30.09,7,0,7,0.00
2013-3-5,69.4,59.9,44.9,61.7,52.2,40.3,88,76,62,30.12,29.97,17,2,17,0.00
2013-3-6,65.6,59.1,54.4,63.5,47.6,39.5,93,67,48,30.10,29.92,21,2,21,0.00
2013-3-7,58.9,53.2,44.5,47.1,39.8,31.7,82,61,42,30.18,30.09,14,0,14,0.00
2013-3-8,66.8,56.9,43.9,52.5,46.6,38.7,96,71,40,30.18,30.09,6,0,6,0.00
2013-3-9,72.8,60.5,48.9,55.8,49.1,39.4,92,69,31,30.17,30.09,13,0,13,0.00
2013-3-10,78.6,65.5,58.1,59.9,54.9,50.3,87,70,40,30.10,29.99,18,1,18,0.00
2013-3-11,75.8,68.1,60.2,62.4,58.4,55.4,87,72,54,30.04,29.82,24,2,24,0.00
2013-3-12,68.9,62.1,58.9,66.5,56.8,50.7,97,83,72,30.01,29.79,24,1,24,0.13
2013-3-13,66.8,61.8,58.6,52.7,47.5,41.5,75,60,46,30.15,29.99,10,1,14,0.00
2013-3-14,60.7,58.6,52.5,52.9,42.9,29.7,76,56,38,30.24,30.12,12,0,13,0.00
2013-3-15,66.3,56.9,44.6,50.1,42.4,27.2,91,61,28,30.24,30.13,7,0,7,0.00
2013-3-16,71.6,60.4,49.2,59.8,51.3,40.1,95,75,33,30.15,30.04,12,1,12,0.00
2013-3-17,74.2,63.3,55.0,60.4,57.1,53.7,98,82,54,30.07,29.95,19,1,19,0.01
2013-3-18,72.7,67.4,61.6,66.9,62.3,57.4,93,84,74,29.98,29.81,19,2,19,0.00
2013-3-19,78.5,68.2,62.7,66.1,63.7,61.4,97,86,59,29.96,29.84,12,1,13,0.01
2013-3-20,71.1,65.6,58.9,64.9,62.1,57.0,95,89,72,29.92,29.76,13,1,13,0.14
2013-3-21,65.6,59.8,50.7,59.5,44.9,31.4,95,60,31,29.96,29.83,12,0,12,0.01
2013-3-22,74.9,60.2,48.8,66.8,54.4,42.1,97,82,41,29.95,29.84,7,0,13,0.17
2013-3-23,78.3,70.8,65.3,72.0,68.4,64.4,97,93,79,29.91,29.75,21,3,21,0.01
2013-3-24,76.7,71.9,68.8,71.8,69.8,66.4,97,93,84,29.76,29.60,26,4,26,0.00
2013-3-25,69.1,62.2,57.6,66.8,50.8,41.0,94,67,47,30.01,29.70,13,1,13,0.00
2013-3-26,59.9,54.8,51.1,46.5,39.4,34.6,65,56,47,30.21,30.01,16,1,16,0.00
2013-3-27,56.6,50.9,43.1,43.1,36.1,28.7,73,57,45,30.29,30.17,10,0,10,0.00
2013-3-28,66.3,56.7,46.2,48.2,40.1,27.7,84,57,29,30.26,30.17,7,0,7,0.00
2013-3-29,73.3,60.3,48.6,52.5,46.6,32.1,90,64,23,30.27,30.16,11,0,11,0.00
2013-3-30,71.6,62.6,52.0,59.6,52.6,44.3,91,71,44,30.19,30.09,16,2,16,0.00
2013-3-31,76.0,67.0,57.8,61.8,56.9,52.2,91,72,46,30.11,29.95,19,2,19,0.00
2013-4-1,74.9,69.9,66.4,68.9,65.4,61.1,95,86,79,29.98,29.90,18,2,18,0.00
2013-4-2,75.6,68.4,62.6,65.7,63.6,61.6,97,85,68,30.05,29.95,4,0,5,0.01
2013-4-3,82.4,71.5,63.1,68.4,65.0,61.1,95,81,52,30.02,29.88,25,2,25,0.03
2013-4-4,73.7,69.7,66.4,69.4,66.3,62.4,96,89,69,29.99,29.80,18,2,19,0.46
2013-4-5,71.3,66.5,62.0,66.1,61.5,56.3,95,84,67,29.95,29.75,14,1,14,0.10
2013-4-6,70.8,63.6,55.1,61.2,55.6,49.9,86,76,59,30.06,29.95,13,0,13,0.00
2013-4-7,80.3,69.7,61.0,64.5,60.0,54.9,93,73,46,30.09,29.99,10,0,12,0.00
2013-4-8,84.5,72.8,65.2,66.3,60.9,53.3,86,68,36,30.07,29.99,13,0,13,0.00
2013-4-9,84.7,73.6,64.8,67.4,63.6,60.2,92,72,46,30.09,30.00,14,1,14,0.00
2013-4-10,86.5,75.2,66.4,69.6,64.2,59.8,88,70,42,30.05,29.91,12,0,14,0.00
2013-4-11,73.5,72.9,72.3,68.6,66.7,65.3,88,81,76,29.91,29.87,9,0,10,0.00
2013-4-12,76.8,74.8,71.6,73.1,71.5,67.9,95,89,84,29.86,29.72,29,4,29,0.02
2013-4-13,81.8,74.3,69.4,69.7,67.1,63.7,92,79,63,29.93,29.83,3,0,5,0.00
2013-4-14,81.8,74.5,68.8,73.4,68.0,60.3,91,80,68,29.94,29.80,21,1,26,0.00
2013-4-15,83.4,76.0,68.8,70.4,65.8,61.3,82,71,54,30.01,29.86,7,0,8,0.00
2013-4-16,91.0,78.7,68.8,73.6,68.9,65.4,94,74,45,30.07,29.96,16,1,16,0.00
2013-4-17,87.4,77.7,68.9,71.6,65.6,58.6,92,68,39,30.08,29.95,14,1,14,0.00
2013-4-18,85.9,77.4,69.9,71.2,67.6,63.5,88,73,50,29.98,29.88,16,1,16,0.00
2013-4-19,85.3,78.5,73.0,72.8,71.1,67.7,92,79,58,29.94,29.87,30,3,30,0.00
2013-4-20,76.5,68.6,61.0,72.7,62.9,56.5,92,82,71,30.09,29.92,14,1,14,0.05
2013-4-21,80.5,69.0,60.7,69.9,63.1,55.9,94,82,63,30.08,29.97,13,1,13,0.13
2013-4-22,82.6,71.8,66.9,69.6,66.6,62.2,98,85,62,30.02,29.92,14,1,14,0.01
2013-4-23,82.0,72.9,65.5,68.4,63.8,58.3,89,74,53,30.05,29.96,14,1,14,0.00
2013-4-24,84.7,74.3,64.8,67.7,65.0,55.9,88,74,40,30.08,30.01,12,0,12,0.00
2013-4-25,81.8,74.1,65.2,70.2,65.9,62.5,93,76,56,30.15,30.05,12,0,12,0.00
2013-4-26,82.4,75.1,66.9,70.9,66.5,63.4,90,75,63,30.18,30.09,10,0,10,0.00
2013-4-27,84.7,76.2,70.1,70.4,66.7,60.5,91,73,45,30.15,30.02,17,0,17,0.00
2013-4-28,88.2,76.1,68.6,68.9,64.8,57.5,83,69,36,30.05,29.91,14,1,14,0.00
2013-4-29,82.0,76.1,69.4,70.9,66.5,61.5,87,73,58,29.95,29.84,18,1,18,0.01
2013-4-30,88.4,76.5,68.1,71.8,68.8,64.5,96,79,46,29.93,29.84,12,0,12,0.47
2013-5-1,74.0,70.7,66.6,72.4,68.7,65.6,97,94,84,29.94,29.84,13,1,13,0.52
2013-5-2,80.1,72.3,66.1,70.3,67.5,64.6,97,86,69,29.91,29.75,12,1,12,0.00
2013-5-3,80.7,73.7,68.3,72.0,68.5,64.4,97,84,68,29.76,29.67,10,0,10,0.52
2013-5-4,79.0,72.5,68.1,69.0,66.8,64.2,92,83,71,29.77,29.63,17,1,17,0.00
2013-5-5,74.9,70.0,64.8,66.0,56.9,50.2,93,64,46,29.88,29.75,17,1,17,0.02
2013-5-6,73.3,69.7,65.6,63.5,57.5,54.3,77,65,53,29.97,29.84,19,1,19,0.00
2013-5-7,74.2,69.8,65.6,62.9,58.2,54.5,76,67,57,30.01,29.92,16,2,16,0.00
2013-5-8,76.5,72.3,68.3,63.9,60.8,56.7,76,67,59,30.08,29.98,12,0,12,0.00
2013-5-9,81.8,74.3,67.1,66.9,64.3,61.7,84,71,59,30.10,30.02,8,0,8,0.00
2013-5-10,85.5,75.7,65.3,71.0,66.2,61.4,95,74,45,30.08,29.94,14,1,14,0.00
2013-5-11,82.2,76.7,72.5,75.2,72.0,67.1,95,86,73,29.99,29.94,14,2,14,0.00
2013-5-12,83.2,76.4,71.3,73.6,70.0,67.0,95,81,65,29.99,29.88,10,0,10,0.00
2013-5-13,81.6,75.4,71.1,69.6,60.4,49.7,84,61,39,30.08,29.95,11,0,11,0.00
2013-5-14,82.0,72.6,62.3,60.9,47.5,35.3,69,42,22,30.16,30.07,10,0,10,0.00
2013-5-15,85.1,73.8,62.4,63.9,58.9,49.8,86,62,32,30.15,30.01,11,0,11,0.00
2013-5-16,81.8,75.9,66.8,68.0,63.8,58.5,85,67,51,30.07,29.94,12,1,12,0.00
2013-5-17,83.0,76.2,69.3,69.8,66.4,62.9,88,72,58,30.04,29.96,12,1,12,0.00
2013-5-18,84.1,77.0,70.8,73.3,69.7,66.0,92,78,62,30.05,29.97,12,1,12,0.00
2013-5-19,85.7,78.1,70.8,72.8,69.3,67.2,94,75,57,30.04,29.93,5,0,5,0.00
2013-5-20,87.6,78.6,72.7,74.1,69.0,61.5,90,73,50,30.01,29.91,13,0,13,0.03
2013-5-21,85.3,76.5,70.4,72.2,69.3,64.6,95,79,58,29.97,29.86,16,0,16,0.01
2013-5-22,85.3,77.7,70.4,73.1,70.3,67.9,93,79,62,29.91,29.84,8,0,8,0.00
2013-5-23,85.9,79.5,72.7,73.8,71.7,69.7,93,78,64,29.96,29.86,11,0,11,0.00
2013-5-24,87.6,81.4,76.7,76.7,72.0,66.2,87,74,56,30.02,29.92,7,0,7,0.00
2013-5-25,91.4,82.0,72.7,71.9,64.0,53.6,79,57,28,30.11,29.99,17,1,17,0.00
2013-5-26,86.7,79.7,69.8,62.8,54.1,43.8,75,45,23,30.15,30.08,17,2,17,0.00
2013-5-27,86.1,86.1,86.1,47.2,47.2,47.2,26,26,26,30.10,30.10,2,2,7,0.00
2013-5-28,90.7,82.9,71.6,73.9,59.5,47.2,93,51,26,30.10,29.94,18,2,18,0.46
2013-5-29,87.8,78.2,73.2,73.2,69.7,64.7,91,76,52,30.03,29.96,21,1,21,0.12
2013-5-30,88.0,80.4,75.3,72.0,69.8,65.9,88,71,54,30.01,29.93,22,2,22,0.00
2013-5-31,88.2,79.8,74.6,72.9,69.7,67.6,81,72,54,30.01,29.92,17,1,17,0.00
2013-6-1,86.3,78.5,71.6,76.1,72.2,68.8,96,82,62,29.98,29.89,12,1,12,0.04
2013-6-2,84.9,77.5,73.0,75.8,73.4,72.1,97,88,67,29.93,29.83,14,1,14,0.01
2013-6-3,83.8,79.1,75.3,75.1,73.4,71.8,94,83,70,29.93,29.83,18,2,18,0.10
2013-6-4,85.5,80.1,76.1,74.4,71.9,66.4,89,77,55,29.94,29.86,18,1,18,0.00
2013-6-5,85.1,78.5,73.3,73.7,71.8,69.2,94,80,61,29.94,29.82,14,1,14,0.05
2013-6-6,81.4,77.4,73.5,75.1,72.9,70.4,97,86,75,29.82,29.58,33,7,35,0.02
2013-6-7,82.8,79.5,77.2,74.8,72.9,70.6,88,80,73,29.90,29.72,13,2,16,0.00
2013-6-8,84.3,78.7,72.3,76.6,73.6,70.7,97,85,73,30.03,29.90,16,1,16,0.83
2013-6-9,90.1,79.3,72.3,75.7,73.1,69.7,97,82,56,30.03,29.94,26,0,26,0.02
2013-6-10,87.8,81.3,76.3,76.7,74.4,72.3,93,80,66,30.02,29.95,14,1,14,0.00
2013-6-11,90.7,82.4,75.8,77.6,74.9,70.6,92,79,63,30.03,29.94,11,0,11,0.00
2013-6-12,90.3,83.8,75.3,77.1,74.3,71.1,89,74,62,30.02,29.94,7,0,7,0.00
2013-6-13,88.0,83.0,79.2,76.2,74.2,72.0,86,75,64,29.99,29.85,14,1,14,0.00
2013-6-14,86.7,82.3,80.1,75.4,73.6,71.9,81,75,65,29.90,29.82,14,2,14,0.00
2013-6-15,87.4,83.0,80.5,77.3,75.4,72.8,84,78,70,29.99,29.85,12,0,13,0.00
2013-6-16,89.3,82.3,75.8,78.0,75.5,73.3,94,80,62,30.01,29.95,11,0,11,0.49
2013-6-17,88.6,83.0,77.0,76.9,74.9,71.5,91,77,64,30.00,29.93,11,1,11,0.00
2013-6-18,88.2,83.1,76.7,76.6,75.0,73.5,92,77,66,29.99,29.91,11,1,11,0.00
2013-6-19,89.9,84.0,75.6,78.4,75.5,73.0,96,76,62,29.97,29.91,10,0,10,0.16
2013-6-20,90.5,83.4,77.4,76.2,73.4,67.8,92,73,55,30.03,29.94,14,0,14,0.00
2013-6-21,89.7,81.3,75.4,77.1,72.7,69.7,88,76,60,30.05,29.97,10,0,13,0.07
2013-6-22,90.5,80.9,73.7,74.9,71.2,64.5,94,75,47,30.05,29.98,13,1,13,0.13
2013-6-23,91.2,80.3,72.0,75.4,73.4,68.7,94,81,55,30.06,29.99,16,0,16,0.16
2013-6-24,92.1,82.2,75.3,75.4,73.4,66.7,92,76,45,30.11,29.99,14,0,14,0.27
2013-6-25,91.0,81.8,73.7,77.1,73.6,67.8,96,78,49,30.09,29.96,18,0,18,0.17
2013-6-26,89.3,80.8,74.4,76.9,73.9,69.0,96,81,59,30.01,29.94,18,0,18,0.01
2013-6-27,89.0,82.1,74.4,76.2,73.6,70.9,92,76,62,29.99,29.88,10,0,11,0.00
2013-6-28,88.2,83.6,79.4,77.3,74.9,72.7,87,75,67,29.91,29.79,18,2,18,0.02
2013-6-29,84.1,81.2,76.5,76.3,74.0,68.1,92,79,68,29.82,29.74,21,2,21,0.22
2013-6-30,86.3,82.7,77.2,76.9,74.4,70.7,89,76,69,29.82,29.73,18,2,18,0.27
2013-7-1,80.3,75.9,71.5,76.6,73.4,68.7,97,92,81,29.92,29.76,20,2,20,1.05
2013-7-2,87.4,78.5,72.8,75.9,72.9,70.3,97,84,63,30.01,29.88,21,1,21,0.40
2013-7-3,89.0,77.9,72.7,76.6,73.2,70.5,97,86,60,30.04,29.96,16,1,16,0.63
2013-7-4,88.4,78.0,72.8,76.0,73.2,70.9,96,86,60,30.08,29.98,21,1,21,0.38
2013-7-5,89.7,77.5,72.7,75.8,73.7,71.2,96,89,58,30.07,30.00,12,0,21,0.96
2013-7-6,92.9,81.8,74.4,76.7,73.9,68.0,96,79,48,30.05,29.96,13,1,13,0.01
2013-7-7,92.9,81.7,75.3,76.1,73.7,70.0,96,78,48,30.06,29.96,13,0,13,0.62
2013-7-8,91.4,81.4,75.1,76.9,74.5,70.7,96,81,53,30.09,30.00,8,0,8,0.12
2013-7-9,91.2,82.4,75.1,76.8,73.9,68.2,95,77,56,30.10,29.98,10,0,10,0.02
2013-7-10,89.5,83.2,74.9,75.1,72.8,68.9,93,72,59,30.02,29.89,13,0,13,0.03
2013-7-11,85.7,78.9,74.4,77.8,74.4,70.4,96,87,68,29.96,29.86,17,0,17,0.07
2013-7-12,87.6,82.4,77.4,75.4,73.5,70.8,87,75,63,29.89,29.82,10,1,10,0.00
2013-7-13,85.5,78.3,73.0,77.4,73.4,70.4,97,85,65,29.90,29.83,17,1,17,0.74
2013-7-14,87.6,78.7,74.6,78.6,74.2,71.8,95,86,68,30.00,29.88,16,0,16,0.52
2013-7-15,89.9,80.1,74.0,75.3,72.5,69.1,92,79,53,30.04,29.95,13,0,14,0.12
2013-7-16,90.7,79.6,75.8,74.1,71.8,68.2,91,78,50,30.08,30.00,25,1,25,0.01
2013-7-17,91.8,78.0,70.8,74.7,72.3,67.5,97,84,51,30.09,29.99,24,0,24,0.42
2013-7-18,89.0,77.5,72.3,74.1,72.4,69.7,97,86,55,30.05,29.97,13,0,13,0.06
2013-7-19,87.6,77.4,73.9,75.6,73.1,70.3,96,87,65,30.05,29.97,18,0,18,0.25
2013-7-20,89.9,80.0,74.0,77.0,73.8,71.4,94,82,62,30.04,29.95,10,0,10,0.00
2013-7-21,86.7,82.0,75.6,78.0,75.7,72.0,94,82,71,30.05,29.98,13,1,13,0.00
2013-7-22,86.5,83.5,79.6,77.1,76.1,74.7,88,79,72,30.07,29.99,13,2,14,0.00
2013-7-23,86.1,83.8,81.6,76.1,74.8,73.1,80,74,68,30.02,29.91,13,2,17,0.00
2013-7-24,86.7,83.7,80.7,76.6,75.4,74.3,85,76,68,29.94,29.84,16,3,17,0.01
2013-7-25,87.2,83.5,76.8,77.3,75.7,73.7,94,78,66,29.94,29.81,17,3,17,0.58
2013-7-26,90.7,83.8,76.8,78.2,76.2,73.1,93,78,59,29.95,29.88,8,0,12,0.11
2013-7-27,91.4,85.2,80.9,76.7,75.1,73.0,85,72,59,29.94,29.86,10,0,10,0.00
2013-7-28,88.0,82.8,77.9,76.7,74.4,71.7,88,76,67,29.99,29.87,6,0,11,0.00
2013-7-29,91.4,83.6,75.4,76.0,74.1,72.3,91,74,58,30.08,29.96,7,0,7,0.00
2013-7-30,91.4,83.1,74.4,77.3,74.6,68.3,92,76,61,30.11,30.00,19,0,19,0.12
2013-7-31,92.1,82.7,75.4,77.9,74.3,68.2,94,77,52,30.07,29.94,11,0,11,0.00
2013-8-1,90.5,82.6,77.9,76.8,73.9,70.2,87,75,57,29.98,29.88,13,0,14,0.00
2013-8-2,91.8,83.6,76.1,77.4,74.4,71.6,92,75,59,29.97,29.88,8,0,8,0.00
2013-8-3,89.7,85.4,81.1,77.9,74.7,71.6,87,70,64,30.03,29.93,14,1,14,0.11
2013-8-4,90.5,85.4,79.9,78.4,76.4,74.2,90,75,64,30.03,29.93,12,1,12,0.07
2013-8-5,91.6,86.5,82.8,79.2,76.7,74.6,80,73,62,29.96,29.87,11,0,11,0.01
2013-8-6,91.2,83.3,77.4,78.8,76.2,69.7,95,80,59,29.92,29.82,17,0,17,0.19
2013-8-7,92.1,81.8,73.9,78.3,75.0,67.4,95,81,55,29.89,29.82,18,0,18,0.06
2013-8-8,92.9,81.2,73.0,77.2,74.7,71.1,96,82,52,29.95,29.85,18,1,18,0.20
2013-8-9,91.2,79.8,73.5,77.0,74.2,70.4,97,84,51,29.99,29.89,14,0,14,0.17
2013-8-10,91.4,82.5,74.2,77.7,74.6,71.6,96,79,55,30.05,29.96,10,0,10,0.01
2013-8-11,93.6,85.1,77.4,77.3,75.0,70.5,90,73,49,30.08,29.99,12,0,13,0.00
2013-8-12,92.1,84.9,77.7,81.5,76.9,74.5,91,77,64,30.06,29.94,8,0,8,0.00
2013-8-13,89.9,84.6,78.1,78.2,75.5,71.7,87,74,64,29.98,29.87,11,0,11,0.00
2013-8-14,90.1,85.9,78.1,82.4,75.3,72.7,94,71,61,29.93,29.86,12,0,12,0.01
2013-8-15,92.1,83.8,77.7,77.1,74.8,71.8,88,75,55,29.96,29.88,13,1,16,0.00
2013-8-16,89.3,84.9,80.9,75.8,74.1,69.8,81,70,56,29.97,29.90,27,1,27,0.00
2013-8-17,94.3,83.1,75.4,77.5,74.7,70.1,96,78,52,30.00,29.91,16,1,16,0.25
2013-8-18,92.9,81.6,75.8,78.1,74.9,70.8,96,82,51,30.03,29.94,16,0,16,0.12
2013-8-19,91.4,80.7,73.7,77.4,74.7,70.4,96,84,56,30.00,29.89,17,0,17,0.40
2013-8-20,91.8,79.8,73.7,76.8,73.4,68.4,96,82,56,30.01,29.92,16,0,16,0.02
2013-8-21,92.5,80.4,72.8,78.9,74.5,68.0,96,84,54,30.03,29.90,20,0,20,0.77
2013-8-22,90.7,79.3,72.3,77.3,74.8,70.4,96,87,59,30.01,29.92,16,0,16,0.34
2013-8-23,90.1,81.2,75.8,78.5,75.1,71.1,97,83,59,29.94,29.89,12,0,12,0.02
2013-8-24,90.3,80.8,76.3,77.9,74.3,71.0,92,81,64,30.05,29.92,16,0,16,0.00
2013-8-25,89.7,79.5,75.4,75.2,73.7,71.4,94,83,59,30.09,30.00,10,0,10,0.08
2013-8-26,92.1,80.1,74.6,76.6,73.8,69.9,95,83,51,30.08,29.93,15,0,15,0.47
2013-8-27,91.0,79.7,73.9,76.3,72.7,67.1,95,81,46,29.99,29.91,14,0,14,0.20
2013-8-28,89.9,80.3,72.7,75.3,72.3,67.2,96,78,49,29.99,29.90,7,0,10,0.38
2013-8-29,87.6,81.8,74.0,75.4,72.9,70.1,90,75,63,29.97,29.88,12,0,12,0.00
2013-8-30,88.8,83.9,80.7,77.3,74.9,72.0,85,75,63,29.93,29.83,10,0,10,0.00
2013-8-31,86.3,80.3,72.8,76.2,73.7,71.0,96,81,65,29.93,29.82,11,0,11,1.20
2013-9-1,87.4,81.8,76.5,75.9,73.1,70.7,92,76,60,29.92,29.85,6,0,6,0.01
2013-9-2,88.0,82.8,77.2,77.1,74.0,72.0,92,75,61,29.96,29.87,8,0,8,0.00
2013-9-3,88.2,83.6,77.6,75.9,74.0,72.2,88,73,63,29.97,29.87,8,0,8,0.00
2013-9-4,90.3,78.3,73.7,77.2,74.0,71.5,96,87,58,30.02,29.90,14,0,14,1.56
2013-9-5,89.7,78.9,74.4,77.8,74.4,63.2,96,87,59,30.02,29.93,24,0,26,0.14
2013-9-6,88.6,81.3,76.1,78.5,74.9,68.5,92,81,65,29.99,29.88,13,0,14,0.00
2013-9-7,87.6,79.6,72.0,74.4,71.1,68.2,91,76,56,29.96,29.85,16,0,16,0.00
2013-9-8,88.2,80.9,73.7,73.7,71.7,68.8,92,75,55,29.90,29.80,13,1,14,0.00
2013-9-9,89.3,82.5,74.6,74.7,71.7,67.2,90,71,50,29.96,29.86,11,0,11,0.00
2013-9-10,90.3,82.6,75.1,74.1,70.5,63.3,91,69,45,30.01,29.92,14,1,14,0.00
2013-9-11,91.0,82.5,74.6,74.9,69.6,61.8,90,67,39,30.00,29.91,16,1,16,0.00
2013-9-12,87.2,81.4,75.4,76.2,72.6,70.0,91,75,62,29.96,29.82,11,0,11,0.00
2013-9-13,87.0,80.8,74.6,76.4,73.1,71.2,91,78,65,29.84,29.75,11,0,11,0.00
2013-9-14,87.8,82.7,77.2,75.9,73.6,70.3,88,75,59,29.91,29.77,10,0,10,0.00
2013-9-15,92.5,81.1,73.2,77.1,72.6,66.8,89,77,49,30.01,29.89,25,1,25,0.03
2013-9-16,91.6,78.8,73.7,75.4,72.7,68.9,96,83,51,30.00,29.90,20,0,20,0.47
2013-9-17,90.5,79.4,72.7,75.6,72.2,67.3,97,80,51,29.99,29.87,14,0,14,0.01
2013-9-18,88.4,78.9,73.5,76.5,72.8,70.8,94,82,57,29.96,29.88,18,1,18,0.44
2013-9-19,89.0,78.5,73.7,76.5,72.8,69.4,96,84,54,29.99,29.89,12,0,12,0.33
2013-9-20,87.8,79.7,72.5,73.9,71.5,67.5,96,78,53,29.96,29.83,9,0,9,0.01
2013-9-21,85.9,79.8,72.7,75.2,70.0,67.1,87,73,57,29.87,29.71,16,1,16,0.00
2013-9-22,85.1,81.3,78.6,77.2,74.5,70.1,89,80,66,29.78,29.68,22,2,22,0.13
2013-9-23,80.7,77.7,75.4,77.6,75.4,73.9,96,93,87,29.87,29.75,16,0,16,1.07
2013-9-24,81.2,77.9,73.9,77.2,75.1,72.5,96,91,81,29.89,29.77,19,3,19,1.38
2013-9-25,81.6,76.6,70.6,77.7,73.4,69.1,97,90,77,29.85,29.73,26,3,26,1.93
2013-9-26,85.9,81.6,75.8,77.7,75.2,69.9,88,81,71,29.82,29.72,16,2,16,0.00
2013-9-27,82.4,76.2,70.1,73.3,69.6,67.2,92,80,64,29.90,29.81,16,1,16,0.00
2013-9-28,85.5,77.1,70.6,74.5,70.6,68.2,93,81,61,29.93,29.86,13,1,14,0.02
2013-9-29,85.1,78.3,70.3,72.5,69.0,66.7,90,74,56,29.93,29.83,11,0,13,0.00
2013-9-30,88.0,79.0,73.2,73.6,71.1,67.0,92,77,53,29.93,29.85,7,0,8,0.00
2013-10-1,89.3,80.7,74.0,75.0,71.5,65.8,92,75,47,29.98,29.89,7,0,13,0.00
2013-10-2,88.4,80.6,73.9,72.0,70.0,68.0,87,71,52,29.98,29.90,11,0,11,0.00
2013-10-3,88.4,80.3,74.2,74.5,70.7,65.3,88,74,47,30.00,29.90,10,0,12,0.00
2013-10-4,87.8,80.4,76.0,74.3,72.1,66.1,88,77,50,30.02,29.93,10,0,12,0.00
2013-10-5,87.6,80.3,74.6,75.8,71.2,67.1,87,74,51,29.98,29.88,11,0,11,0.00
2013-10-6,87.2,79.8,74.2,74.3,71.7,63.7,93,78,47,29.91,29.80,11,1,12,0.00
2013-10-7,83.6,77.5,73.0,77.0,73.7,70.2,96,89,75,29.80,29.68,22,3,25,0.50
2013-10-8,84.0,80.1,74.6,76.0,73.7,69.4,91,81,73,29.89,29.74,17,2,17,0.07
2013-10-9,79.0,74.0,68.4,70.4,67.8,63.9,86,81,73,29.98,29.88,12,1,12,0.00
2013-10-10,81.4,73.5,64.5,69.8,66.2,62.4,94,79,64,30.00,29.91,10,0,10,0.00
2013-10-11,83.4,76.2,68.1,69.6,66.6,62.0,92,73,59,29.98,29.90,11,0,11,0.00
2013-10-12,82.8,76.3,69.1,68.3,64.0,60.9,86,67,51,29.99,29.91,10,0,10,0.00
2013-10-13,82.6,75.2,66.3,69.2,62.7,60.3,88,66,51,30.02,29.93,6,0,8,0.00
2013-10-14,81.1,74.7,67.4,69.2,66.0,62.4,91,75,62,29.99,29.88,14,1,14,0.00
2013-10-15,77.7,71.9,66.8,70.9,67.3,64.4,93,86,76,29.95,29.85,12,0,12,0.00
2013-10-16,80.1,74.1,68.6,70.8,68.4,67.1,96,83,68,29.91,29.85,7,0,8,0.00
2013-10-17,83.0,76.8,70.4,73.4,70.3,66.7,93,81,67,29.92,29.84,8,0,8,0.00
2013-10-18,86.7,78.2,71.1,74.2,71.3,68.7,94,80,58,29.91,29.84,14,0,14,0.00
2013-10-19,84.1,78.3,73.2,76.3,73.4,71.1,94,85,69,29.88,29.81,12,1,12,0.00
2013-10-20,84.3,79.4,74.7,75.3,72.8,69.8,94,81,66,29.89,29.81,10,0,10,0.00
2013-10-21,84.3,78.9,73.7,74.9,72.6,71.2,93,81,67,29.93,29.86,11,0,11,0.00
2013-10-22,83.2,76.7,72.0,75.2,72.3,70.4,96,87,70,29.88,29.77,18,1,18,0.18
2013-10-23,78.3,74.5,68.8,72.9,64.0,54.7,96,71,52,29.95,29.75,19,2,19,0.02
2013-10-24,71.6,66.0,61.3,58.0,48.2,41.8,76,53,43,30.12,29.95,14,1,16,0.01
2013-10-25,76.7,67.6,58.6,61.8,55.3,49.2,85,66,43,30.19,30.09,12,1,12,0.00
2013-10-26,76.0,67.0,58.0,58.9,56.3,53.8,86,69,50,30.15,30.04,12,0,12,0.00
2013-10-27,76.1,66.7,57.3,61.0,56.1,50.7,91,70,51,30.07,30.00,6,0,10,0.00
2013-10-28,70.3,70.3,70.3,57.1,57.1,57.1,63,63,63,30.01,30.01,0,0,6,0.00
2013-10-29,83.4,74.4,64.3,68.7,61.5,57.1,92,65,45,30.16,30.01,11,0,11,0.00
2013-10-30,83.8,74.3,67.1,70.4,65.8,62.8,90,75,51,30.16,30.02,12,0,12,0.00
2013-10-31,83.8,75.1,68.3,70.4,66.9,61.7,94,77,50,30.07,29.91,12,0,12,0.00
2013-11-1,81.6,76.4,71.8,73.8,71.8,69.2,93,86,75,29.93,29.81,21,2,21,0.00
2013-11-2,77.4,68.8,62.0,74.7,63.3,59.0,96,83,68,29.94,29.75,17,0,17,0.46
2013-11-3,74.2,66.6,60.1,61.1,50.1,43.3,89,57,34,30.07,29.92,18,1,18,0.01
2013-11-4,78.6,69.1,59.0,63.6,56.9,49.6,84,66,50,30.10,30.03,16,1,16,0.00
2013-11-5,82.0,73.2,64.0,67.9,65.0,61.6,93,76,59,30.08,29.98,18,1,18,0.00
2013-11-6,84.3,74.5,69.8,69.9,66.8,63.8,89,78,51,30.04,29.96,11,0,11,0.00
2013-11-7,77.6,72.1,67.4,69.8,67.5,65.3,93,85,75,30.00,29.92,8,0,8,0.00
2013-11-8,78.5,70.5,63.5,69.0,61.4,56.7,91,74,55,30.06,29.94,13,1,13,0.00
2013-11-9,79.6,72.4,63.7,66.1,62.2,58.3,83,71,61,30.09,30.02,16,0,16,0.00
2013-11-10,78.6,71.5,65.5,68.9,65.0,61.0,87,80,66,30.10,30.01,10,0,10,0.00
2013-11-11,79.4,71.5,65.0,68.4,65.3,61.4,92,81,64,30.09,30.01,10,0,10,0.00
2013-11-12,77.0,70.1,65.0,69.2,64.8,56.5,95,84,62,30.06,29.96,16,1,16,0.00
2013-11-13,69.9,61.6,52.0,57.1,49.4,45.0,78,64,57,30.25,30.02,20,2,20,0.00
2013-11-14,75.8,63.2,51.0,57.6,52.1,45.4,86,68,49,30.23,30.10,13,0,16,0.00
2013-11-15,70.9,66.8,62.9,65.1,61.0,56.6,90,82,71,30.11,29.99,10,0,10,0.05
2013-11-16,73.7,70.2,67.1,69.7,67.3,64.3,96,91,80,30.06,29.96,16,0,16,0.26
2013-11-17,82.0,74.0,69.1,70.6,67.2,63.2,91,80,64,30.01,29.93,12,1,12,0.00
2013-11-18,78.6,73.6,69.4,72.1,69.7,67.5,96,88,74,29.96,29.87,7,0,7,0.01
2013-11-19,73.2,71.1,66.1,72.0,67.1,59.0,97,88,66,29.91,29.83,10,0,10,0.00
2013-11-20,77.2,70.3,63.4,70.7,65.7,59.9,90,86,80,30.02,29.91,12,0,12,0.01
2013-11-21,83.2,75.0,70.6,70.4,68.8,67.7,92,82,64,30.10,30.01,16,0,16,0.00
2013-11-22,83.4,74.9,69.1,70.6,68.1,63.9,94,80,59,30.12,30.02,6,0,10,0.00
2013-11-23,80.7,71.7,65.0,69.1,65.6,62.9,94,82,56,30.06,29.96,11,0,11,0.00
2013-11-24,70.8,65.4,57.6,68.0,58.9,49.8,92,80,70,30.16,29.98,14,1,14,0.00
2013-11-25,73.7,66.9,57.6,62.2,56.7,50.1,80,70,58,30.15,29.98,17,1,17,0.00
2013-11-26,78.8,72.5,67.6,73.2,69.1,62.2,97,89,76,29.98,29.70,24,4,24,0.49
2013-11-27,72.0,63.1,50.1,70.6,55.9,41.1,97,77,66,30.15,29.68,26,4,26,0.05
2013-11-28,58.6,49.6,37.2,50.8,41.0,28.9,85,72,63,30.30,30.15,14,1,17,0.00
2013-11-29,72.0,59.9,49.9,55.5,51.3,46.5,91,74,53,30.30,30.20,17,1,17,0.00
2013-11-30,73.5,63.2,54.5,62.3,57.1,48.3,93,81,64,30.26,30.12,7,0,12,0.00
2013-12-1,66.3,60.8,58.6,62.5,59.3,57.8,98,95,86,30.14,29.93,10,0,10,0.00
2013-12-2,66.8,62.4,58.9,62.0,58.9,55.1,99,89,74,29.94,29.79,11,0,11,0.00
2013-12-3,76.8,67.8,59.2,67.2,62.2,56.1,95,83,62,29.92,29.82,14,1,14,0.00
2013-12-4,79.8,72.2,67.4,71.3,67.6,66.0,97,86,66,30.01,29.89,5,0,8,0.01
2013-12-5,80.9,71.8,66.8,71.2,66.0,64.0,95,83,59,30.10,30.01,11,0,11,0.00
2013-12-6,81.4,73.0,66.8,71.4,68.3,65.3,97,86,67,30.10,30.02,20,1,20,0.01
2013-12-7,79.9,72.0,66.9,69.8,67.5,65.1,97,87,67,30.17,30.07,11,0,11,0.01
2013-12-8,82.6,72.5,66.6,70.6,66.8,65.3,97,83,59,30.15,30.03,10,0,10,0.02
2013-12-9,80.1,72.9,67.1,71.9,68.0,64.9,95,85,72,30.11,30.02,16,1,16,0.00
2013-12-10,78.1,71.8,66.1,70.9,68.3,64.9,98,89,74,30.10,30.02,11,1,11,0.02
2013-12-11,78.3,69.1,62.9,68.1,63.7,58.0,94,83,63,30.18,30.09,8,0,8,0.00
2013-12-12,71.3,63.4,53.5,63.9,51.4,31.8,95,69,33,30.25,30.13,12,1,12,0.00
2013-12-13,74.4,61.7,48.5,58.7,50.3,36.9,86,68,44,30.23,30.04,13,0,13,0.00
2013-12-14,80.3,72.2,65.0,70.7,66.5,58.4,92,83,69,30.04,29.87,22,2,22,0.00
2013-12-15,73.0,66.6,58.9,71.9,62.3,53.1,97,86,75,30.08,29.83,19,2,19,0.00
2013-12-16,60.1,54.9,47.7,53.1,46.3,41.0,84,73,58,30.17,30.06,18,1,18,0.00
2013-12-17,65.8,59.7,47.3,53.7,48.3,39.8,88,67,44,30.20,30.10,11,0,11,0.00
2013-12-18,66.6,56.5,51.4,54.3,51.0,44.3,92,82,52,30.24,30.15,11,0,11,0.00
2013-12-19,75.4,60.7,48.2,58.3,51.0,42.9,88,72,45,30.21,30.10,9,0,9,0.00
2013-12-20,83.2,69.7,60.1,67.4,61.9,55.7,88,77,55,30.12,30.02,11,0,11,0.00
2013-12-21,83.2,74.1,67.3,69.8,67.2,64.6,93,80,62,30.05,29.94,18,1,18,0.00
2013-12-22,80.7,74.8,69.8,71.7,69.3,67.5,95,84,71,30.06,29.98,21,2,21,0.00
2013-12-23,80.1,74.1,69.4,72.9,70.6,67.6,96,89,77,30.09,30.02,19,2,19,0.00
2013-12-24,70.9,60.9,51.1,69.7,49.7,28.9,96,70,30,30.21,30.06,17,2,17,0.00
2013-12-25,74.6,60.4,47.0,58.5,47.9,33.5,73,63,52,30.21,30.06,12,0,12,0.00
2013-12-26,72.1,64.6,59.3,63.2,58.8,55.0,90,82,72,30.15,30.04,12,0,12,0.00
2013-12-27,69.9,64.7,60.5,64.4,60.3,56.3,91,86,80,30.18,30.08,11,0,11,0.01
2013-12-28,77.6,65.8,64.2,68.4,62.5,61.6,95,89,71,30.14,29.92,10,0,12,0.01
2013-12-29,73.9,69.3,63.1,70.8,66.7,61.3,96,91,86,29.96,29.82,22,2,22,0.38
2013-12-30,66.0,62.3,59.2,61.9,58.2,52.5,92,87,75,30.14,29.95,12,1,12,0.00
2013-12-31,68.1,62.6,59.3,56.2,51.6,48.8,79,68,52,30.24,30.10,12,1,12,0.00
2014-1-1,62.3,60.1,57.5,61.4,57.3,50.2,98,91,66,30.19,29.98,11,1,11,0.31
2014-1-2,73.9,66.5,60.5,70.7,65.2,54.7,99,96,81,29.98,29.79,22,2,22,0.29